Latest Weather Observations for Mount Keith

IDW60801

Issued at 9:32 pm WST Saturday 28 February 2015 (issued every 30 minutes, with the page automatically refreshed every 10 minutes)

About weather observations | Map of weather stations | Latest weather observations for WA | Other Formats
Station Details ID: 512019 Name: MOUNT KEITH Lat: -27.29 Lon: 120.55 Height: 542.33 m
Data from the previous 72 hours. | See also: Recent months for locations in Western Australia
Date/Time
WST
Temp
°C
App
Temp
°C
Dew
Point
Rel
Hum
%
Delta-T
°C
Wind Press
QNH
hPa
Press
MSL
hPa
Rain
since 9 am
mm
Dir
 
Spd
km/h
Gust
km/h
Spd
kts
Gust
kts
28/09:30pm 25.7 24.5 20.0 71 3.8 E 26 37 14 20 1012.8 1008.6 0.4
28/09:00pm 25.6 26.6 21.1 76 3.0 ESE 17 22 9 12 1012.4 1008.2 0.4
28/08:30pm 25.3 27.2 21.4 79 2.6 ESE 13 19 7 10 1012.8 1008.6 0.4
28/08:00pm 24.9 26.2 21.6 82 2.2 ESE 17 26 9 14 1012.2 1008.0 0.4
28/07:30pm 25.8 26.5 21.5 77 2.9 SE 20 30 11 16 1012.1 1007.9 0.0
28/07:00pm 26.4 26.6 21.4 74 3.4 ESE 22 32 12 17 1011.6 1007.3 0.0
28/06:30pm 27.1 26.3 20.9 69 4.2 SE 26 35 14 19 1011.8 1007.5 0.0
28/06:00pm 27.6 27.1 21.4 69 4.2 SE 26 35 14 19 1011.0 1006.8 0.0
28/05:30pm 28.0 27.4 21.3 67 4.6 SE 26 33 14 18 1010.6 1006.4 0.0
28/05:00pm 28.4 28.0 21.7 67 4.6 SSE 26 37 14 20 1010.3 1006.1 0.0
28/04:30pm 29.2 28.2 21.9 64 5.0 SSE 30 37 16 20 1010.4 1006.2 0.0
28/04:00pm 30.3 29.8 21.4 59 6.1 SSE 26 35 14 19 1010.3 1006.1 0.0
28/03:30pm 31.1 30.7 21.0 55 6.9 SE 24 33 13 18 1010.7 1006.5 0.0
28/03:00pm 31.7 32.6 20.0 50 7.9 ESE 15 20 8 11 1010.7 1006.5 0.0
28/02:30pm 32.2 32.7 20.8 51 7.8 SE 19 24 10 13 1011.0 1006.8 0.0
28/02:00pm 31.5 32.9 21.1 54 7.1 E 15 26 8 14 1011.5 1007.2 0.0
28/01:30pm 31.1 32.8 20.1 52 7.4 ESE 11 15 6 8 1012.0 1007.8 0.0
28/01:00pm 30.2 31.8 20.7 56 6.4 SE 13 20 7 11 1012.5 1008.3 0.0
28/12:30pm 30.2 32.5 22.1 62 5.6 E 13 19 7 10 1012.9 1008.7 0.0
28/12:00pm 28.9 30.3 21.1 62 5.3 ESE 15 22 8 12 1013.3 1009.0 0.0
28/11:30am 28.6 30.0 21.1 64 5.1 E 15 24 8 13 1013.5 1009.2 0.0
28/11:00am 28.3 30.3 21.6 67 4.6 ESE 13 20 7 11 1013.6 1009.4 0.0
28/10:30am 27.3 28.4 21.3 69 4.1 E 17 24 9 13 1013.8 1009.6 0.0
28/10:00am 26.8 28.0 21.5 72 3.6 E 17 22 9 12 1014.1 1009.9 0.0
28/09:30am 26.5 27.6 21.3 73 3.5 E 17 22 9 12 1014.0 1009.8 0.0
28/09:00am 26.6 27.8 22.2 77 3.0 ESE 19 28 10 15 1013.8 1009.6 10.8
28/08:30am 25.8 27.2 22.5 82 2.3 ESE 19 26 10 14 1013.6 1009.4 10.8
28/08:00am 25.8 26.1 21.5 77 2.9 SE 22 30 12 16 1013.4 1009.1 10.8
28/07:30am 26.0 28.3 22.1 79 2.7 SSE 13 17 7 9 1012.8 1008.6 10.8
28/07:00am 24.7 28.3 22.4 87 1.6 SSW 7 11 4 6 1012.2 1008.0 10.8
28/06:30am 24.3 28.2 22.9 92 1.0 SW 7 9 4 5 1011.8 1007.5 10.8
28/06:00am 24.2 28.1 22.6 91 1.1 SW 6 7 3 4 1011.3 1007.0 10.8
28/05:30am 24.2 28.1 22.6 91 1.1 SW 6 7 3 4 1010.9 1006.7 10.8
28/05:00am 24.2 29.3 22.6 91 1.1 CALM 0 0 0 0 1010.5 1006.3 10.8
28/04:30am 24.0 27.8 22.4 91 1.1 S 6 9 3 5 1010.1 1005.8 10.8
28/04:00am 23.9 27.3 22.7 93 0.8 S 9 13 5 7 1009.7 1005.4 10.8
28/03:30am 23.6 28.5 22.4 93 0.8 CALM 0 0 0 0 1009.7 1005.4 10.8
28/03:00am 23.5 28.0 22.3 93 0.8 SSW 2 6 1 3 1009.6 1005.3 10.8
28/02:30am 23.4 27.2 22.4 94 0.7 SSW 6 7 3 4 1009.8 1005.5 10.8
28/02:00am 23.3 27.0 22.6 96 0.5 SSW 7 9 4 5 1010.2 1006.0 10.8
28/01:30am 23.3 26.6 22.6 96 0.5 S 9 13 5 7 1010.4 1006.2 10.6
28/01:00am 23.2 26.5 22.5 96 0.5 SSW 9 13 5 7 1010.9 1006.7 9.8
28/12:30am 23.1 25.5 22.3 95 0.5 SSW 13 17 7 9 1011.3 1007.0 9.0
28/12:00am 23.5 25.2 22.3 93 0.8 SW 17 20 9 11 1011.5 1007.2 7.8
 
Date/Time
WST
Temp
°C
App
Temp
°C
Dew
Point
Rel
Hum
%
Delta-T
°C
Wind Press
QNH
hPa
Press
MSL
hPa
Rain
since 9 am
mm
Dir
 
Spd
km/h
Gust
km/h
Spd
kts
Gust
kts
27/11:30pm 23.9 26.9 22.7 93 0.8 SW 11 15 6 8 1011.7 1007.4 7.6
27/11:00pm 24.0 27.8 22.4 91 1.1 WSW 6 7 3 4 1011.8 1007.5 7.4
27/10:30pm 23.9 27.8 22.9 94 0.7 SSW 7 9 4 5 1012.2 1008.0 7.2
27/10:00pm 24.0 28.1 23.0 94 0.7 SSW 6 9 3 5 1012.3 1008.1 6.4
27/09:30pm 24.5 25.2 22.2 87 1.6 W 22 28 12 15 1012.4 1008.2 5.8
27/09:00pm 24.6 25.4 22.5 88 1.4 W 22 35 12 19 1012.1 1007.9 5.6
27/08:30pm 26.4 27.1 21.6 75 3.3 WNW 20 35 11 19 1010.7 1006.5 5.0
27/08:00pm 26.8 27.2 21.8 74 3.4 N 22 33 12 18 1009.4 1005.1 5.0
27/07:30pm 28.1 29.1 21.1 65 4.7 N 17 22 9 12 1008.9 1004.7 5.0
27/07:00pm 28.0 29.6 21.5 67 4.4 NNE 15 17 8 9 1008.4 1004.1 5.0
27/06:30pm 28.1 31.3 23.0 74 3.5 NE 11 13 6 7 1007.9 1003.6 5.0
27/06:00pm 27.8 31.7 23.6 78 2.9 N 9 11 5 6 1007.7 1003.4 5.0
27/05:30pm 28.2 32.0 22.7 72 3.8 S 7 9 4 5 1007.1 1002.9 5.0
27/05:00pm 27.0 29.3 22.8 78 2.9 SW 15 17 8 9 1006.8 1002.6 5.0
27/04:30pm 24.0 24.7 19.7 77 2.8 WNW 15 20 8 11 1006.6 1002.3 5.0
27/04:29pm 23.9 24.4 19.2 75 3.1 WNW 15 20 8 11 1006.7 1002.4 5.0
27/04:17pm 23.7 20.2 18.8 74 3.2 W 35 56 19 30 1006.9 1002.7 5.0
27/04:07pm 26.0 25.6 21.7 77 2.9 WNW 26 48 14 26 1007.3 1003.0 3.4
27/04:00pm 26.0 27.1 21.9 78 2.8 N 19 39 10 21 1007.5 1003.2 3.2
27/03:38pm 28.0 26.0 20.8 65 4.9 NW 32 48 17 26 1007.1 1002.9 0.6
27/03:35pm 28.7 26.1 19.9 59 5.9 NW 33 48 18 26 1006.9 1002.7 0.4
27/03:30pm 29.6 27.3 20.2 57 6.3 WNW 32 43 17 23 1006.4 1002.1 0.2
27/03:27pm 31.4 28.4 18.7 46 8.4 WNW 32 43 17 23 1006.2 1001.9 0.2
27/03:00pm 35.6 35.3 18.2 35 11.6 N 17 22 9 12 1005.9 1001.6 0.0
27/02:30pm 37.2 37.3 19.2 35 12.2 NW 17 28 9 15 1006.1 1001.8 0.0
27/02:00pm 35.9 35.7 18.5 36 11.7 W 17 32 9 17 1006.6 1002.3 0.0
27/01:30pm 35.1 35.3 18.6 37 11.0 W 15 26 8 14 1007.3 1003.0 0.0
27/01:00pm 35.0 35.6 20.2 42 10.1 W 17 32 9 17 1007.7 1003.4 0.0
27/12:30pm 34.3 35.1 19.1 40 10.2 WNW 13 20 7 11 1008.2 1003.9 0.0
27/12:00pm 33.7 34.0 20.8 46 8.8 WNW 20 30 11 16 1008.7 1004.5 0.0
27/11:30am 32.9 33.2 20.4 47 8.5 WNW 19 28 10 15 1009.1 1004.9 0.0
27/11:00am 32.5 32.7 20.1 48 8.4 NW 19 28 10 15 1009.6 1005.3 0.0
27/10:30am 31.6 32.8 21.4 54 7.0 NW 17 28 9 15 1009.7 1005.4 0.0
27/10:00am 30.7 31.4 21.2 57 6.5 NW 19 28 10 15 1009.7 1005.4 0.0
27/09:30am 30.5 30.8 21.6 59 6.1 NW 22 33 12 18 1009.8 1005.5 0.0
27/09:00am 29.4 30.5 21.9 64 5.2 NNW 19 26 10 14 1009.8 1005.5 13.0
27/08:30am 28.1 29.7 22.1 70 4.1 N 17 24 9 13 1009.8 1005.5 13.0
27/08:00am 26.8 26.9 21.8 74 3.4 N 24 32 13 17 1009.7 1005.4 13.0
27/07:30am 26.2 26.9 21.6 76 3.1 N 20 30 11 16 1009.7 1005.4 13.0
27/07:00am 25.7 27.2 22.0 80 2.5 N 17 26 9 14 1009.6 1005.3 13.0
27/06:30am 25.3 26.8 22.0 82 2.2 N 17 24 9 13 1009.6 1005.3 13.0
27/06:00am 24.9 27.4 22.4 86 1.7 NNE 13 20 7 11 1009.3 1005.0 13.0
27/05:30am 24.7 27.7 22.6 88 1.4 N 11 15 6 8 1008.9 1004.7 13.0
27/05:00am 24.7 27.4 22.8 89 1.3 NE 13 17 7 9 1008.4 1004.1 13.0
27/04:30am 24.8 27.4 22.7 88 1.4 NE 13 17 7 9 1008.0 1003.7 13.0
27/04:00am 25.0 26.8 22.5 86 1.7 NNE 17 20 9 11 1007.9 1003.6 13.0
27/03:30am 25.2 27.1 22.7 86 1.7 NNE 17 22 9 12 1007.8 1003.5 13.0
27/03:00am 25.5 27.5 22.2 82 2.3 NNE 15 19 8 10 1007.9 1003.6 13.0
27/02:30am 25.7 27.9 21.8 79 2.7 NE 13 20 7 11 1007.4 1003.1 13.0
27/02:00am 25.7 29.0 22.6 83 2.1 NE 9 13 5 7 1007.1 1002.9 13.0
27/01:30am 25.8 29.4 22.3 81 2.4 NNE 7 11 4 6 1007.3 1003.0 13.0
27/01:00am 26.1 28.1 22.2 79 2.7 NNE 15 22 8 12 1007.7 1003.4 13.0
27/12:30am 26.3 29.3 22.6 80 2.5 NNE 11 17 6 9 1008.3 1004.0 13.0
27/12:00am 26.0 28.1 22.5 81 2.4 NNE 15 20 8 11 1008.4 1004.1 13.0
 
Date/Time
WST
Temp
°C
App
Temp
°C
Dew
Point
Rel
Hum
%
Delta-T
°C
Wind Press
QNH
hPa
Press
MSL
hPa
Rain
since 9 am
mm
Dir
 
Spd
km/h
Gust
km/h
Spd
kts
Gust
kts
26/11:30pm 25.4 28.0 23.3 88 1.5 NNE 15 22 8 12 1008.4 1004.1 13.0
26/11:00pm 25.1 27.5 23.0 88 1.5 NE 15 20 8 11 1008.2 1003.9 13.0
26/10:30pm 25.2 26.7 22.7 86 1.7 NE 19 24 10 13 1008.4 1004.1 13.0
26/10:00pm 25.2 27.2 22.9 87 1.6 NE 17 24 9 13 1009.0 1004.8 13.0
26/09:30pm 26.1 29.3 23.0 83 2.1 ENE 11 22 6 12 1009.1 1004.9 13.0
26/09:00pm 26.4 29.0 22.0 77 3.0 ENE 11 15 6 8 1009.1 1004.9 12.8
26/08:30pm 26.8 27.5 22.2 76 3.2 E 22 30 12 16 1008.5 1004.3 12.8
26/08:00pm 30.6 32.3 20.2 53 7.0 NNW 11 19 6 10 1007.6 1003.3 12.8
26/07:30pm 30.4 31.9 21.2 58 6.3 NW 15 22 8 12 1006.8 1002.6 12.8
26/07:27pm 29.7 31.1 20.3 57 6.3 NW 13 22 7 12 1006.8 1002.6 12.8
26/07:00pm 23.8 28.2 23.5 98 0.2 NNW 6 13 3 7 1006.8 1002.6 12.8
26/06:54pm 22.6 26.2 22.1 97 0.3 N 6 11 3 6 1006.6 1002.3 12.6
26/06:53pm 22.2 25.6 21.7 97 0.3 NNE 6 11 3 6 1006.6 1002.3 12.6
26/06:40pm 21.8 17.7 21.1 96 0.5 SSW 44 95 24 51 1006.3 1002.0 12.6
26/06:37pm 21.3 14.0 20.5 95 0.5 SW 59 106 32 57 1006.2 1001.9 12.6
26/06:34pm 20.9 12.9 19.7 93 0.8 WSW 61 106 33 57 1006.4 1002.1 12.2
26/06:33pm 21.5 14.4 20.1 92 0.9 WSW 57 106 31 57 1006.8 1002.6 11.0
26/06:30pm 21.8 18.3 20.4 92 0.9 SW 39 106 21 57 1007.5 1003.2 7.4
26/06:29pm 22.7 19.9 20.2 86 1.6 SW 35 96 19 52 1007.3 1003.0 5.8
26/06:28pm 24.3 22.0 20.2 78 2.7 SW 32 80 17 43 1007.3 1003.0 4.6
26/06:21pm 24.6 21.9 14.7 54 6.0 WSW 22 70 12 38 1006.3 1002.0 2.8
26/06:20pm 26.5 24.7 17.0 56 6.0 W 22 70 12 38 1006.7 1002.4 2.0
26/06:19pm 28.4 27.9 19.1 57 6.1 W 20 70 11 38 1006.2 1001.9 1.0
26/06:00pm 35.7 36.0 17.9 35 11.8 W 13 19 7 10 1005.6 1001.3 0.2
26/05:30pm 35.7 35.2 17.9 35 11.8 W 17 22 9 12 1005.6 1001.3 0.2
26/05:00pm 35.3 35.0 19.2 38 10.9 W 19 26 10 14 1004.8 1000.5 0.2
26/04:30pm 32.7 33.1 19.9 46 8.6 W 17 20 9 11 1004.8 1000.5 0.2
26/04:00pm 30.7 32.1 22.6 62 5.6 W 19 28 10 15 1005.4 1001.1 0.2
26/03:40pm 33.5 28.8 16.8 36 10.8 W 37 59 20 32 1005.1 1000.9 0.0
26/03:30pm 33.5 29.7 18.0 39 10.2 W 35 48 19 26 1005.6 1001.3 0.0
26/03:26pm 33.7 30.6 17.4 37 10.7 WNW 30 48 16 26 1005.7 1001.4 0.0
26/03:00pm 38.0 36.2 16.9 29 13.9 NNW 22 35 12 19 1005.1 1000.9 0.0
26/02:42pm 38.8 36.5 17.5 28 14.2 N 26 46 14 25 1005.4 1001.1 0.0
26/02:30pm 38.2 35.7 17.0 28 14.0 NNW 26 39 14 21 1005.5 1001.2 0.0
26/02:00pm 38.2 35.9 17.6 30 13.7 N 26 39 14 21 1005.8 1001.5 0.0
26/01:31pm 37.5 34.8 17.5 30 13.2 N 28 46 15 25 1006.7 1002.4 0.0
26/01:30pm 38.0 35.8 17.9 30 13.4 N 26 46 14 25 1006.6 1002.3 0.0
26/01:00pm 37.2 35.0 18.7 33 12.5 N 28 39 15 21 1007.4 1003.1 0.0
26/12:30pm 36.6 33.8 19.1 35 11.8 N 32 44 17 24 1008.0 1003.7 0.0
26/12:00pm 35.9 34.2 18.9 36 11.4 N 26 39 14 21 1008.7 1004.5 0.0
26/11:30am 35.5 34.2 19.0 37 11.1 N 24 33 13 18 1009.4 1005.1 0.0
26/11:00am 35.4 33.7 18.0 35 11.5 N 24 37 13 20 1009.7 1005.4 0.0
26/10:30am 34.9 33.4 18.5 38 10.9 N 24 39 13 21 1010.2 1006.0 0.0
26/10:00am 33.8 32.4 18.7 40 10.1 N 24 35 13 19 1010.5 1006.3 0.0
26/09:30am 33.2 32.6 19.7 45 9.1 N 22 32 12 17 1010.8 1006.6 0.0
26/09:00am 31.9 31.2 20.2 50 7.9 N 24 33 13 18 1011.0 1006.8 0.0
26/08:30am 30.9 30.2 20.2 53 7.2 NNE 24 32 13 17 1010.9 1006.7 0.0
26/08:00am 30.0 29.2 20.0 55 6.7 NNE 24 33 13 18 1011.0 1006.8 0.0
26/07:30am 28.9 28.3 20.4 60 5.7 NNE 24 30 13 16 1011.0 1006.8 0.0
26/07:00am 28.4 28.6 20.1 60 5.6 NE 19 26 10 14 1010.9 1006.7 0.0
26/06:30am 27.7 28.2 20.0 63 5.1 NE 17 24 9 13 1010.2 1006.0 0.0
26/06:00am 27.1 27.7 20.2 66 4.6 NE 17 26 9 14 1009.9 1005.6 0.0
26/05:30am 26.8 28.3 20.6 69 4.2 NE 13 19 7 10 1009.8 1005.5 0.0
26/05:00am 26.8 28.7 20.6 69 4.2 NE 11 13 6 7 1009.6 1005.3 0.0
26/04:30am 26.9 28.5 20.7 69 4.2 NE 13 17 7 9 1009.4 1005.1 0.0
26/04:00am 27.1 28.7 20.7 68 4.3 NE 13 17 7 9 1009.4 1005.1 0.0
26/03:30am 27.3 29.0 20.9 68 4.3 ENE 13 17 7 9 1009.0 1004.8 0.0
26/03:00am 27.6 28.8 20.7 66 4.7 NE 15 20 8 11 1008.8 1004.6 0.0
26/02:30am 27.7 28.4 20.5 65 4.8 NE 17 20 9 11 1008.9 1004.7 0.0
26/02:00am 27.6 28.9 20.2 64 5.0 ENE 13 15 7 8 1009.3 1005.0 0.0
26/01:30am 27.7 29.3 20.0 63 5.1 ENE 11 13 6 7 1009.1 1004.9 0.0
26/01:00am 28.0 30.3 19.8 61 5.5 ENE 7 11 4 6 1009.5 1005.2 0.0
26/12:30am 28.5 29.6 19.7 59 5.9 ENE 13 17 7 9 1009.7 1005.4 0.0
26/12:00am 28.9 30.7 19.5 57 6.3 ENE 9 13 5 7 1010.0 1005.7 0.0
 
Date/Time
WST
Temp
°C
App
Temp
°C
Dew
Point
Rel
Hum
%
Delta-T
°C
Wind Press
QNH
hPa
Press
MSL
hPa
Rain
since 9 am
mm
Dir
 
Spd
km/h
Gust
km/h
Spd
kts
Gust
kts
25/11:30pm 29.5 31.8 19.8 56 6.5 NE 7 11 4 6 1010.1 1005.8 0.0
25/11:00pm 29.8 31.0 19.8 55 6.7 ENE 13 19 7 10 1010.3 1006.1 0.0
25/10:30pm 30.1 31.8 20.1 55 6.7 ENE 11 19 6 10 1010.6 1006.4 0.0
25/10:00pm 30.3 31.7 19.6 52 7.2 ENE 11 15 6 8 1010.7 1006.5 0.0

Other Formats:

Comma delimited format used in spreadsheet applications
http://www.bom.gov.au/fwo/IDW60801/IDW60801.99434.axf

JavaScript Object Notation format (JSON) in row-major order
http://www.bom.gov.au/fwo/IDW60801/IDW60801.99434.json